CheckWX is a tool to help pilots better visualize weather data.  It is not intended as a substitute for an official pre-flight weather briefing.

10:14:34 UTC

KPTB METAR
Dinwiddie County Airport
Petersburg, Virginia, USA
Current

20 mins ago

KPTB 200955Z AUTO 00000KT 4SM -RA SCT012 BKN031 OVC055 00/M01 A3053 RMK AO2 T00001013
Observed
Feb-20 @ 09:55 UTC
Visibility
6,437 meters
Flight Rules
MVFR
Conditions
Light Rain
Cloud Levels
  • Scattered at 1,200' AGL
  • Broken at 3,100' AGL
  • Overcast at 5,500' AGL
Temperature
C / 32°F
Dewpoint
-1°C / 30°F
Humidity
93%
Altimeter
30.53" Hg
Pressure
1033.81 hPa
Previous

40 mins ago

KPTB 200935Z AUTO 09005KT 4SM -RA SCT033 BKN039 OVC055 00/M01 A3050 RMK AO2 T00001015
Observed
Feb-20 @ 09:35 UTC
Wind
  • 090° at 5 KTS
Visibility
6,437 meters
Flight Rules
MVFR
Conditions
Light Rain
Cloud Levels
  • Scattered at 3,300' AGL
  • Broken at 3,900' AGL
  • Overcast at 5,500' AGL
Temperature
C / 32°F
Dewpoint
-2°C / 28°F
Humidity
87%
Altimeter
30.5" Hg
Pressure
1032.81 hPa
Previous

60 mins ago

KPTB 200915Z AUTO 07004KT 1 1/2SM UP SCT018 SCT026 OVC033 00/M01 A3052 RMK AO2 T00001015
Observed
Feb-20 @ 09:15 UTC
Wind
  • 070° at 4 KTS
Visibility
2,414 meters
Flight Rules
IFR
Conditions
Unknown precipitation
Cloud Levels
  • Scattered at 1,800' AGL
  • Scattered at 2,600' AGL
  • Overcast at 3,300' AGL
Temperature
C / 32°F
Dewpoint
-2°C / 28°F
Humidity
87%
Altimeter
30.52" Hg
Pressure
1033.51 hPa